sensor_id;sensor_type;location;lat;lon;timestamp;pressure;altitude;pressure_sealevel;temperature;humidity
35878;BME280;21982;49.804;24.072;2023-10-08T00:02:25;96689.28;;;12.17;74.59
35878;BME280;21982;49.804;24.072;2023-10-08T00:04:52;96647.19;;;11.89;74.38
35878;BME280;21982;49.804;24.072;2023-10-08T00:07:20;96695.59;;;12.16;74.61
35878;BME280;21982;49.804;24.072;2023-10-08T00:09:48;96651.88;;;11.87;74.82
35878;BME280;21982;49.804;24.072;2023-10-08T00:12:14;96691.59;;;12.06;74.77
35878;BME280;21982;49.804;24.072;2023-10-08T00:14:41;96610.00;;;11.51;74.75
35878;BME280;21982;49.804;24.072;2023-10-08T00:17:13;96680.25;;;11.86;74.48
35878;BME280;21982;49.804;24.072;2023-10-08T00:19:39;96677.19;;;11.89;74.48
35878;BME280;21982;49.804;24.072;2023-10-08T00:22:08;96703.50;;;11.91;74.38
35878;BME280;21982;49.804;24.072;2023-10-08T00:24:34;96684.34;;;11.82;74.59
35878;BME280;21982;49.804;24.072;2023-10-08T00:27:00;96676.81;;;11.72;74.56
35878;BME280;21982;49.804;24.072;2023-10-08T00:29:31;96681.53;;;11.64;74.72
35878;BME280;21982;49.804;24.072;2023-10-08T00:31:57;96563.34;;;10.79;74.66
35878;BME280;21982;49.804;24.072;2023-10-08T00:34:22;96611.59;;;11.07;74.68
35878;BME280;21982;49.804;24.072;2023-10-08T00:36:52;96686.69;;;11.46;74.69
35878;BME280;21982;49.804;24.072;2023-10-08T00:39:18;96661.25;;;11.31;74.87
35878;BME280;21982;49.804;24.072;2023-10-08T00:41:51;96603.25;;;10.97;75.19
35878;BME280;21982;49.804;24.072;2023-10-08T00:44:29;96660.84;;;11.28;75.11
35878;BME280;21982;49.804;24.072;2023-10-08T00:46:59;96676.28;;;11.44;75.29
35878;BME280;21982;49.804;24.072;2023-10-08T00:49:27;96663.50;;;11.28;75.36
35878;BME280;21982;49.804;24.072;2023-10-08T00:52:13;96651.44;;;11.38;75.21
35878;BME280;21982;49.804;24.072;2023-10-08T00:54:40;96665.31;;;11.40;75.26
35878;BME280;21982;49.804;24.072;2023-10-08T00:57:28;96676.34;;;11.37;74.91
35878;BME280;21982;49.804;24.072;2023-10-08T00:59:55;96633.59;;;11.07;75.37
35878;BME280;21982;49.804;24.072;2023-10-08T01:02:28;96147.63;;;7.74;74.93
35878;BME280;21982;49.804;24.072;2023-10-08T01:05:08;96666.97;;;11.28;75.53
35878;BME280;21982;49.804;24.072;2023-10-08T01:07:36;96673.47;;;11.32;75.39
35878;BME280;21982;49.804;24.072;2023-10-08T01:10:02;96541.19;;;10.47;75.46
35878;BME280;21982;49.804;24.072;2023-10-08T01:12:35;96674.50;;;11.31;75.56
35878;BME280;21982;49.804;24.072;2023-10-08T01:15:14;96673.47;;;11.32;75.50
35878;BME280;21982;49.804;24.072;2023-10-08T01:17:43;96676.13;;;11.32;75.50
35878;BME280;21982;49.804;24.072;2023-10-08T01:20:29;96677.56;;;11.28;75.43
35878;BME280;21982;49.804;24.072;2023-10-08T01:23:17;96695.94;;;11.23;75.57
35878;BME280;21982;49.804;24.072;2023-10-08T01:25:46;96698.56;;;11.23;75.60
35878;BME280;21982;49.804;24.072;2023-10-08T01:28:35;96702.88;;;11.11;75.52
35878;BME280;21982;49.804;24.072;2023-10-08T01:31:00;96645.47;;;10.65;75.70
35878;BME280;21982;49.804;24.072;2023-10-08T01:33:29;96634.06;;;10.38;75.71
35878;BME280;21982;49.804;24.072;2023-10-08T01:36:02;96731.00;;;10.92;75.62
35878;BME280;21982;49.804;24.072;2023-10-08T01:38:32;96723.66;;;10.88;75.74
35878;BME280;21982;49.804;24.072;2023-10-08T01:41:00;96731.81;;;10.80;76.08
35878;BME280;21982;49.804;24.072;2023-10-08T01:43:30;96486.19;;;9.23;75.85
35878;BME280;21982;49.804;24.072;2023-10-08T01:45:56;96689.81;;;10.24;76.04
35878;BME280;21982;49.804;24.072;2023-10-08T01:48:21;96728.38;;;10.72;76.44
35878;BME280;21982;49.804;24.072;2023-10-08T01:51:02;96727.13;;;10.75;76.36
35878;BME280;21982;49.804;24.072;2023-10-08T01:53:35;96740.78;;;10.79;76.26
35878;BME280;21982;49.804;24.072;2023-10-08T01:56:00;96743.63;;;10.84;76.18
35878;BME280;21982;49.804;24.072;2023-10-08T01:58:26;96704.91;;;10.56;76.17
35878;BME280;21982;49.804;24.072;2023-10-08T02:00:54;96766.06;;;10.88;76.09
35878;BME280;21982;49.804;24.072;2023-10-08T02:03:23;96696.34;;;10.41;76.16
35878;BME280;21982;49.804;24.072;2023-10-08T02:05:49;96755.84;;;10.78;76.44
35878;BME280;21982;49.804;24.072;2023-10-08T02:08:19;96770.53;;;10.74;76.52
35878;BME280;21982;49.804;24.072;2023-10-08T02:10:45;96760.34;;;10.78;76.97
35878;BME280;21982;49.804;24.072;2023-10-08T02:13:13;96624.34;;;9.78;76.31
35878;BME280;21982;49.804;24.072;2023-10-08T02:16:05;96774.81;;;10.82;76.34
35878;BME280;21982;49.804;24.072;2023-10-08T02:18:32;96775.03;;;10.73;76.36
35878;BME280;21982;49.804;24.072;2023-10-08T02:20:58;96725.69;;;10.39;76.32
35878;BME280;21982;49.804;24.072;2023-10-08T02:23:24;96706.69;;;10.23;76.41
35878;BME280;21982;49.804;24.072;2023-10-08T02:25:50;96615.19;;;9.74;75.88
35878;BME280;21982;49.804;24.072;2023-10-08T02:28:15;96738.41;;;10.16;75.45
35878;BME280;21982;49.804;24.072;2023-10-08T02:30:42;96772.06;;;10.29;75.99
35878;BME280;21982;49.804;24.072;2023-10-08T02:33:08;96689.41;;;9.66;75.52
35878;BME280;21982;49.804;24.072;2023-10-08T02:35:42;96755.84;;;9.97;75.37
35878;BME280;21982;49.804;24.072;2023-10-08T02:38:12;96777.84;;;10.04;75.45
35878;BME280;21982;49.804;24.072;2023-10-08T02:40:39;96788.22;;;9.99;75.29
35878;BME280;21982;49.804;24.072;2023-10-08T02:43:10;96763.09;;;9.82;75.56
35878;BME280;21982;49.804;24.072;2023-10-08T02:45:37;96790.84;;;9.99;75.46
35878;BME280;21982;49.804;24.072;2023-10-08T02:48:05;96808.75;;;9.97;75.17
35878;BME280;21982;49.804;24.072;2023-10-08T02:50:38;96722.59;;;9.40;75.46
35878;BME280;21982;49.804;24.072;2023-10-08T02:53:05;96790.88;;;9.71;75.57
35878;BME280;21982;49.804;24.072;2023-10-08T02:55:40;96798.56;;;9.94;74.97
35878;BME280;21982;49.804;24.072;2023-10-08T02:58:14;96786.53;;;9.92;75.07
35878;BME280;21982;49.804;24.072;2023-10-08T03:00:44;96776.53;;;9.87;75.19
35878;BME280;21982;49.804;24.072;2023-10-08T03:03:12;96793.63;;;9.85;75.39
35878;BME280;21982;49.804;24.072;2023-10-08T03:05:47;96655.59;;;9.14;75.22
35878;BME280;21982;49.804;24.072;2023-10-08T03:08:14;96698.41;;;9.37;75.19
35878;BME280;21982;49.804;24.072;2023-10-08T03:10:44;96683.50;;;9.23;75.06
35878;BME280;21982;49.804;24.072;2023-10-08T03:13:10;96726.81;;;9.63;74.76
35878;BME280;21982;49.804;24.072;2023-10-08T03:15:40;96764.94;;;9.88;74.84
35878;BME280;21982;49.804;24.072;2023-10-08T03:18:37;96768.41;;;9.89;74.92
35878;BME280;21982;49.804;24.072;2023-10-08T03:21:08;96783.69;;;9.93;75.05
35878;BME280;21982;49.804;24.072;2023-10-08T03:23:49;96782.28;;;9.97;74.05
35878;BME280;21982;49.804;24.072;2023-10-08T03:26:23;96780.66;;;9.96;75.16
35878;BME280;21982;49.804;24.072;2023-10-08T03:29:02;96792.25;;;9.95;74.67
35878;BME280;21982;49.804;24.072;2023-10-08T03:31:33;96748.00;;;9.76;74.87
35878;BME280;21982;49.804;24.072;2023-10-08T03:34:14;96779.25;;;10.00;74.88
35878;BME280;21982;49.804;24.072;2023-10-08T03:36:43;96739.31;;;9.89;74.54
35878;BME280;21982;49.804;24.072;2023-10-08T03:39:15;96771.53;;;10.05;74.86
35878;BME280;21982;49.804;24.072;2023-10-08T03:41:41;96773.97;;;10.00;74.91
35878;BME280;21982;49.804;24.072;2023-10-08T03:44:07;96780.28;;;10.06;74.78
35878;BME280;21982;49.804;24.072;2023-10-08T03:46:40;96771.94;;;10.09;74.33
35878;BME280;21982;49.804;24.072;2023-10-08T03:49:09;96746.44;;;9.88;74.33
35878;BME280;21982;49.804;24.072;2023-10-08T03:51:44;96689.97;;;9.55;74.46
35878;BME280;21982;49.804;24.072;2023-10-08T03:54:09;96740.47;;;9.73;74.47
35878;BME280;21982;49.804;24.072;2023-10-08T03:56:35;96780.50;;;10.04;74.56
35878;BME280;21982;49.804;24.072;2023-10-08T03:59:05;96757.44;;;9.92;74.10
35878;BME280;21982;49.804;24.072;2023-10-08T04:01:42;96654.66;;;9.28;73.83
35878;BME280;21982;49.804;24.072;2023-10-08T04:04:08;96794.13;;;10.08;74.09
35878;BME280;21982;49.804;24.072;2023-10-08T04:06:40;96800.66;;;10.12;74.22
35878;BME280;21982;49.804;24.072;2023-10-08T04:09:14;96807.78;;;10.12;74.21
35878;BME280;21982;49.804;24.072;2023-10-08T04:11:49;96802.25;;;10.06;74.18
35878;BME280;21982;49.804;24.072;2023-10-08T04:14:24;96776.16;;;9.90;74.09
35878;BME280;21982;49.804;24.072;2023-10-08T04:16:50;96751.31;;;9.85;73.81
35878;BME280;21982;49.804;24.072;2023-10-08T04:19:20;96783.75;;;10.13;74.22
35878;BME280;21982;49.804;24.072;2023-10-08T04:21:47;96786.19;;;10.08;74.38
35878;BME280;21982;49.804;24.072;2023-10-08T04:24:20;96786.81;;;10.10;74.28
35878;BME280;21982;49.804;24.072;2023-10-08T04:26:52;96811.19;;;10.05;74.26
35878;BME280;21982;49.804;24.072;2023-10-08T04:29:21;96793.47;;;9.93;74.29
35878;BME280;21982;49.804;24.072;2023-10-08T04:31:48;96768.19;;;9.84;74.46
35878;BME280;21982;49.804;24.072;2023-10-08T04:34:19;96793.81;;;9.83;74.39
35878;BME280;21982;49.804;24.072;2023-10-08T04:36:49;96827.72;;;10.14;74.01
35878;BME280;21982;49.804;24.072;2023-10-08T04:39:23;96733.47;;;9.52;74.03
35878;BME280;21982;49.804;24.072;2023-10-08T04:41:58;96844.81;;;10.12;74.16
35878;BME280;21982;49.804;24.072;2023-10-08T04:44:31;96833.84;;;10.15;73.90
35878;BME280;21982;49.804;24.072;2023-10-08T04:46:57;96655.56;;;9.07;74.17
35878;BME280;21982;49.804;24.072;2023-10-08T04:49:30;96833.84;;;10.15;73.65
35878;BME280;21982;49.804;24.072;2023-10-08T04:51:59;96837.09;;;10.17;73.74
35878;BME280;21982;49.804;24.072;2023-10-08T04:54:26;96785.69;;;9.85;73.72
35878;BME280;21982;49.804;24.072;2023-10-08T04:57:01;96824.22;;;10.00;74.10
35878;BME280;21982;49.804;24.072;2023-10-08T04:59:30;96806.22;;;9.83;74.41
35878;BME280;21982;49.804;24.072;2023-10-08T05:02:03;96737.88;;;9.45;73.64
35878;BME280;21982;49.804;24.072;2023-10-08T05:04:45;96853.31;;;10.00;73.80
35878;BME280;21982;49.804;24.072;2023-10-08T05:07:24;96864.44;;;10.24;73.84
35878;BME280;21982;49.804;24.072;2023-10-08T05:10:08;96784.78;;;9.71;74.17
35878;BME280;21982;49.804;24.072;2023-10-08T05:12:49;96838.63;;;9.91;74.22
35878;BME280;21982;49.804;24.072;2023-10-08T05:15:40;96874.69;;;10.05;74.38
35878;BME280;21982;49.804;24.072;2023-10-08T05:18:24;96803.63;;;9.55;73.83
35878;BME280;21982;49.804;24.072;2023-10-08T05:21:03;96810.72;;;9.54;74.04
35878;BME280;21982;49.804;24.072;2023-10-08T05:23:48;96874.88;;;9.97;74.27
35878;BME280;21982;49.804;24.072;2023-10-08T05:26:34;96900.22;;;9.85;73.99
35878;BME280;21982;49.804;24.072;2023-10-08T05:29:08;96902.31;;;9.96;74.03
35878;BME280;21982;49.804;24.072;2023-10-08T05:32:11;96822.50;;;9.52;73.97
35878;BME280;21982;49.804;24.072;2023-10-08T05:35:02;96916.41;;;10.03;73.79
35878;BME280;21982;49.804;24.072;2023-10-08T05:37:46;96804.88;;;9.31;73.77
35878;BME280;21982;49.804;24.072;2023-10-08T05:40:20;96887.84;;;9.92;73.44
35878;BME280;21982;49.804;24.072;2023-10-08T05:43:08;96904.72;;;9.91;73.70
35878;BME280;21982;49.804;24.072;2023-10-08T05:45:48;96780.94;;;9.11;73.74
35878;BME280;21982;49.804;24.072;2023-10-08T05:48:33;96941.63;;;10.06;73.99
35878;BME280;21982;49.804;24.072;2023-10-08T05:51:10;96851.44;;;9.60;73.84
35878;BME280;21982;49.804;24.072;2023-10-08T05:53:48;96955.28;;;10.09;74.02
35878;BME280;21982;49.804;24.072;2023-10-08T05:56:15;96972.63;;;10.12;73.78
35878;BME280;21982;49.804;24.072;2023-10-08T05:58:53;96954.09;;;10.12;73.96
35878;BME280;21982;49.804;24.072;2023-10-08T06:01:39;96939.50;;;9.88;73.40
35878;BME280;21982;49.804;24.072;2023-10-08T06:04:06;96992.16;;;10.11;74.01
35878;BME280;21982;49.804;24.072;2023-10-08T06:06:56;96989.47;;;10.04;73.94
35878;BME280;21982;49.804;24.072;2023-10-08T06:09:38;96957.38;;;9.86;74.14
35878;BME280;21982;49.804;24.072;2023-10-08T06:12:05;96823.66;;;8.93;73.37
35878;BME280;21982;49.804;24.072;2023-10-08T06:14:36;96980.59;;;9.91;73.90
35878;BME280;21982;49.804;24.072;2023-10-08T06:17:19;96923.31;;;9.49;73.65
35878;BME280;21982;49.804;24.072;2023-10-08T06:20:20;97017.16;;;10.08;73.71
35878;BME280;21982;49.804;24.072;2023-10-08T06:22:51;97018.59;;;10.11;73.41
35878;BME280;21982;49.804;24.072;2023-10-08T06:25:18;97028.22;;;10.19;73.16
35878;BME280;21982;49.804;24.072;2023-10-08T06:27:52;97027.25;;;10.20;73.45
35878;BME280;21982;49.804;24.072;2023-10-08T06:30:24;96959.53;;;9.76;73.30
35878;BME280;21982;49.804;24.072;2023-10-08T06:32:55;96913.88;;;9.39;73.32
35878;BME280;21982;49.804;24.072;2023-10-08T06:35:22;97030.88;;;10.19;73.34
35878;BME280;21982;49.804;24.072;2023-10-08T06:37:50;97037.69;;;10.06;73.29
35878;BME280;21982;49.804;24.072;2023-10-08T06:40:22;97016.19;;;9.88;73.01
35878;BME280;21982;49.804;24.072;2023-10-08T06:43:03;96963.16;;;9.47;73.04
35878;BME280;21982;49.804;24.072;2023-10-08T06:45:50;96994.19;;;9.60;73.31
35878;BME280;21982;49.804;24.072;2023-10-08T06:48:22;96902.81;;;9.08;73.13
35878;BME280;21982;49.804;24.072;2023-10-08T06:50:50;97055.09;;;9.94;73.79
35878;BME280;21982;49.804;24.072;2023-10-08T06:53:17;96999.47;;;9.60;73.22
35878;BME280;21982;49.804;24.072;2023-10-08T06:55:47;97008.84;;;9.62;73.23
35878;BME280;21982;49.804;24.072;2023-10-08T06:58:25;96720.13;;;7.77;72.95
35878;BME280;21982;49.804;24.072;2023-10-08T07:00:51;97063.47;;;9.98;73.75
35878;BME280;21982;49.804;24.072;2023-10-08T07:03:17;96970.00;;;9.41;73.53
35878;BME280;21982;49.804;24.072;2023-10-08T07:05:47;96995.56;;;9.56;73.47
35878;BME280;21982;49.804;24.072;2023-10-08T07:08:30;97057.44;;;9.83;73.71
35878;BME280;21982;49.804;24.072;2023-10-08T07:11:03;97025.75;;;9.47;73.47
35878;BME280;21982;49.804;24.072;2023-10-08T07:13:32;97084.94;;;9.88;73.61
35878;BME280;21982;49.804;24.072;2023-10-08T07:15:58;97057.00;;;9.79;73.75
35878;BME280;21982;49.804;24.072;2023-10-08T07:18:31;97085.78;;;9.89;73.60
35878;BME280;21982;49.804;24.072;2023-10-08T07:20:59;97088.97;;;10.05;73.15
35878;BME280;21982;49.804;24.072;2023-10-08T07:23:37;97100.00;;;10.09;73.05
35878;BME280;21982;49.804;24.072;2023-10-08T07:26:14;96820.28;;;8.42;73.26
35878;BME280;21982;49.804;24.072;2023-10-08T07:28:43;97103.72;;;10.15;73.60
35878;BME280;21982;49.804;24.072;2023-10-08T07:31:15;97095.03;;;10.21;72.75
35878;BME280;21982;49.804;24.072;2023-10-08T07:33:42;97105.34;;;10.16;72.76
35878;BME280;21982;49.804;24.072;2023-10-08T07:36:10;97041.69;;;9.74;72.70
35878;BME280;21982;49.804;24.072;2023-10-08T07:38:43;97100.88;;;10.16;72.97
35878;BME280;21982;49.804;24.072;2023-10-08T07:41:10;97104.97;;;10.19;72.50
35878;BME280;21982;49.804;24.072;2023-10-08T07:43:40;97041.00;;;9.87;72.15
35878;BME280;21982;49.804;24.072;2023-10-08T07:46:08;97101.47;;;10.33;72.19
35878;BME280;21982;49.804;24.072;2023-10-08T07:48:34;97069.13;;;10.16;72.02
35878;BME280;21982;49.804;24.072;2023-10-08T07:51:00;97081.56;;;10.44;71.69
35878;BME280;21982;49.804;24.072;2023-10-08T07:53:27;97020.47;;;10.38;71.30
35878;BME280;21982;49.804;24.072;2023-10-08T07:56:06;96968.81;;;10.49;71.13
35878;BME280;21982;49.804;24.072;2023-10-08T07:58:35;96775.69;;;9.80;70.31
35878;BME280;21982;49.804;24.072;2023-10-08T08:01:07;96906.50;;;11.21;69.53
35878;BME280;21982;49.804;24.072;2023-10-08T08:03:38;97067.81;;;12.24;69.85
35878;BME280;21982;49.804;24.072;2023-10-08T08:06:09;97005.16;;;11.77;68.41
35878;BME280;21982;49.804;24.072;2023-10-08T08:08:35;97083.53;;;11.99;68.47
35878;BME280;21982;49.804;24.072;2023-10-08T08:11:05;97051.00;;;11.71;68.29
35878;BME280;21982;49.804;24.072;2023-10-08T08:13:35;97045.84;;;11.50;68.39
35878;BME280;21982;49.804;24.072;2023-10-08T08:16:01;96970.22;;;10.86;68.56
35878;BME280;21982;49.804;24.072;2023-10-08T08:18:51;96891.72;;;10.24;68.44
35878;BME280;21982;49.804;24.072;2023-10-08T08:21:18;96807.41;;;9.80;68.60
35878;BME280;21982;49.804;24.072;2023-10-08T08:23:48;97016.13;;;11.00;67.83
35878;BME280;21982;49.804;24.072;2023-10-08T08:26:19;97095.03;;;11.59;67.99
35878;BME280;21982;49.804;24.072;2023-10-08T08:29:00;96906.44;;;10.40;67.91
35878;BME280;21982;49.804;24.072;2023-10-08T08:31:28;96899.91;;;10.29;68.17
35878;BME280;21982;49.804;24.072;2023-10-08T08:33:58;97109.72;;;11.55;68.00
35878;BME280;21982;49.804;24.072;2023-10-08T08:36:42;97105.03;;;11.57;68.05
35878;BME280;21982;49.804;24.072;2023-10-08T08:39:12;96926.44;;;10.49;67.71
35878;BME280;21982;49.804;24.072;2023-10-08T08:41:58;97122.84;;;11.76;67.40
35878;BME280;21982;49.804;24.072;2023-10-08T08:44:27;97123.56;;;12.04;67.40
35878;BME280;21982;49.804;24.072;2023-10-08T08:46:56;97062.91;;;11.95;67.04
35878;BME280;21982;49.804;24.072;2023-10-08T08:49:23;97133.19;;;12.78;67.02
35878;BME280;21982;49.804;24.072;2023-10-08T08:51:52;97132.72;;;13.27;65.73
35878;BME280;21982;49.804;24.072;2023-10-08T08:54:18;97029.31;;;12.93;64.82
35878;BME280;21982;49.804;24.072;2023-10-08T08:56:45;97134.63;;;14.34;63.84
35878;BME280;21982;49.804;24.072;2023-10-08T08:59:11;97137.63;;;15.56;62.31
35878;BME280;21982;49.804;24.072;2023-10-08T09:01:41;97065.50;;;16.46;59.72
35878;BME280;21982;49.804;24.072;2023-10-08T09:04:07;97136.09;;;18.01;57.56
35878;BME280;21982;49.804;24.072;2023-10-08T09:06:34;97137.44;;;18.94;55.29
35878;BME280;21982;49.804;24.072;2023-10-08T09:09:01;97127.47;;;19.50;53.15
35878;BME280;21982;49.804;24.072;2023-10-08T09:11:45;97142.59;;;19.34;52.38
35878;BME280;21982;49.804;24.072;2023-10-08T09:14:14;97093.03;;;17.91;52.73
35878;BME280;21982;49.804;24.072;2023-10-08T09:16:40;97066.38;;;16.93;53.77
35878;BME280;21982;49.804;24.072;2023-10-08T09:19:06;97124.31;;;18.31;52.89
35878;BME280;21982;49.804;24.072;2023-10-08T09:21:38;97144.09;;;18.75;51.62
35878;BME280;21982;49.804;24.072;2023-10-08T09:24:05;97102.91;;;18.64;50.97
35878;BME280;21982;49.804;24.072;2023-10-08T09:26:35;97147.06;;;19.29;50.37
35878;BME280;21982;49.804;24.072;2023-10-08T09:29:04;97092.25;;;19.90;48.91
35878;BME280;21982;49.804;24.072;2023-10-08T09:31:30;97146.75;;;20.93;48.12
35878;BME280;21982;49.804;24.072;2023-10-08T09:34:01;97152.34;;;21.61;46.24
35878;BME280;21982;49.804;24.072;2023-10-08T09:36:29;97060.47;;;21.67;45.03
35878;BME280;21982;49.804;24.072;2023-10-08T09:39:00;97152.66;;;22.57;43.90
35878;BME280;21982;49.804;24.072;2023-10-08T09:41:31;97147.88;;;22.85;43.19
35878;BME280;21982;49.804;24.072;2023-10-08T09:43:58;97149.47;;;23.01;42.33
35878;BME280;21982;49.804;24.072;2023-10-08T09:46:33;97131.00;;;22.06;43.26
35878;BME280;21982;49.804;24.072;2023-10-08T09:49:06;97144.84;;;21.73;43.36
35878;BME280;21982;49.804;24.072;2023-10-08T09:51:37;97103.41;;;21.27;43.07
35878;BME280;21982;49.804;24.072;2023-10-08T09:54:20;97052.44;;;19.38;44.10
35878;BME280;21982;49.804;24.072;2023-10-08T09:56:47;97003.31;;;18.44;45.09
35878;BME280;21982;49.804;24.072;2023-10-08T09:59:13;97101.56;;;18.05;44.98
35878;BME280;21982;49.804;24.072;2023-10-08T10:01:41;97049.72;;;17.66;45.51
35878;BME280;21982;49.804;24.072;2023-10-08T10:04:11;97155.00;;;19.02;44.38
35878;BME280;21982;49.804;24.072;2023-10-08T10:06:37;97120.16;;;19.07;43.92
35878;BME280;21982;49.804;24.072;2023-10-08T10:09:05;97124.47;;;18.58;43.27
35878;BME280;21982;49.804;24.072;2023-10-08T10:11:47;97088.63;;;17.33;44.11
35878;BME280;21982;49.804;24.072;2023-10-08T10:14:13;97160.44;;;17.01;45.06
35878;BME280;21982;49.804;24.072;2023-10-08T10:16:39;97139.25;;;16.35;46.00
35878;BME280;21982;49.804;24.072;2023-10-08T10:19:06;97161.53;;;15.99;46.75
35878;BME280;21982;49.804;24.072;2023-10-08T10:21:40;97166.09;;;15.80;47.49
35878;BME280;21982;49.804;24.072;2023-10-08T10:24:22;97105.91;;;15.48;47.21
35878;BME280;21982;49.804;24.072;2023-10-08T10:26:48;97149.19;;;15.68;46.88
35878;BME280;21982;49.804;24.072;2023-10-08T10:29:19;97148.47;;;15.61;46.58
35878;BME280;21982;49.804;24.072;2023-10-08T10:31:51;97141.47;;;15.41;46.79
35878;BME280;21982;49.804;24.072;2023-10-08T10:34:28;97142.50;;;16.37;46.20
35878;BME280;21982;49.804;24.072;2023-10-08T10:36:58;97137.63;;;16.34;47.04
35878;BME280;21982;49.804;24.072;2023-10-08T10:39:27;97075.72;;;17.30;44.93
35878;BME280;21982;49.804;24.072;2023-10-08T10:41:57;97141.97;;;17.75;43.29
35878;BME280;21982;49.804;24.072;2023-10-08T10:44:29;97042.50;;;17.83;42.66
35878;BME280;21982;49.804;24.072;2023-10-08T10:46:55;97134.81;;;18.21;42.13
35878;BME280;21982;49.804;24.072;2023-10-08T10:49:40;97106.53;;;18.75;41.96
35878;BME280;21982;49.804;24.072;2023-10-08T10:52:25;97148.78;;;19.18;40.73
35878;BME280;21982;49.804;24.072;2023-10-08T10:55:04;97022.41;;;18.81;40.12
35878;BME280;21982;49.804;24.072;2023-10-08T10:57:55;97146.84;;;20.18;39.81
35878;BME280;21982;49.804;24.072;2023-10-08T11:00:22;97109.97;;;19.26;38.65
35878;BME280;21982;49.804;24.072;2023-10-08T11:03:12;97017.97;;;17.34;39.89
35878;BME280;21982;49.804;24.072;2023-10-08T11:05:43;97156.03;;;17.30;40.45
35878;BME280;21982;49.804;24.072;2023-10-08T11:08:14;97060.50;;;16.26;41.28
35878;BME280;21982;49.804;24.072;2023-10-08T11:10:42;97170.00;;;18.24;40.15
35878;BME280;21982;49.804;24.072;2023-10-08T11:13:20;97101.31;;;18.35;38.83
35878;BME280;21982;49.804;24.072;2023-10-08T11:15:49;97141.28;;;18.08;38.69
35878;BME280;21982;49.804;24.072;2023-10-08T11:18:21;97154.31;;;17.76;38.86
35878;BME280;21982;49.804;24.072;2023-10-08T11:20:48;97144.56;;;17.58;38.55
35878;BME280;21982;49.804;24.072;2023-10-08T11:23:35;97145.56;;;18.83;36.33
35878;BME280;21982;49.804;24.072;2023-10-08T11:26:03;96970.25;;;18.94;36.67
35878;BME280;21982;49.804;24.072;2023-10-08T11:28:36;97143.50;;;20.91;35.78
35878;BME280;21982;49.804;24.072;2023-10-08T11:31:12;97147.44;;;21.48;34.65
35878;BME280;21982;49.804;24.072;2023-10-08T11:33:42;97143.97;;;22.25;34.08
35878;BME280;21982;49.804;24.072;2023-10-08T11:36:09;97143.84;;;21.94;33.45
35878;BME280;21982;49.804;24.072;2023-10-08T11:38:47;97095.97;;;20.11;34.12
35878;BME280;21982;49.804;24.072;2023-10-08T11:41:26;97141.84;;;20.26;35.63
35878;BME280;21982;49.804;24.072;2023-10-08T11:43:57;96690.38;;;16.80;35.23
35878;BME280;21982;49.804;24.072;2023-10-08T11:48:51;97156.72;;;20.34;38.65
35878;BME280;21982;49.804;24.072;2023-10-08T11:51:16;97054.75;;;20.00;36.47
35878;BME280;21982;49.804;24.072;2023-10-08T11:53:46;97114.63;;;19.14;36.83
35878;BME280;21982;49.804;24.072;2023-10-08T11:56:11;97170.19;;;18.80;36.12
35878;BME280;21982;49.804;24.072;2023-10-08T11:58:41;96941.56;;;16.98;35.71
35878;BME280;21982;49.804;24.072;2023-10-08T12:01:12;96930.25;;;17.82;36.71
35878;BME280;21982;49.804;24.072;2023-10-08T12:03:43;97084.63;;;18.61;35.48
35878;BME280;21982;49.804;24.072;2023-10-08T12:06:10;97001.28;;;17.84;35.37
35878;BME280;21982;49.804;24.072;2023-10-08T12:08:41;97087.88;;;18.63;35.34
35878;BME280;21982;49.804;24.072;2023-10-08T12:11:06;97074.38;;;19.74;34.76
35878;BME280;21982;49.804;24.072;2023-10-08T12:13:37;97139.91;;;20.76;33.60
35878;BME280;21982;49.804;24.072;2023-10-08T12:16:03;96933.84;;;20.05;33.09
35878;BME280;21982;49.804;24.072;2023-10-08T12:18:34;97171.34;;;21.91;32.02
35878;BME280;21982;49.804;24.072;2023-10-08T12:21:05;96890.19;;;20.72;32.00
35878;BME280;21982;49.804;24.072;2023-10-08T12:23:36;97036.88;;;21.27;31.05
35878;BME280;21982;49.804;24.072;2023-10-08T12:26:03;97183.69;;;22.45;31.22
35878;BME280;21982;49.804;24.072;2023-10-08T12:28:28;97180.47;;;22.48;31.20
35878;BME280;21982;49.804;24.072;2023-10-08T12:30:54;97186.28;;;21.62;31.22
35878;BME280;21982;49.804;24.072;2023-10-08T12:33:26;97113.94;;;19.84;31.71
35878;BME280;21982;49.804;24.072;2023-10-08T12:35:51;97037.44;;;17.98;33.42
35878;BME280;21982;49.804;24.072;2023-10-08T12:38:24;97154.97;;;17.95;35.16
35878;BME280;21982;49.804;24.072;2023-10-08T12:40:53;97124.22;;;17.46;34.68
35878;BME280;21982;49.804;24.072;2023-10-08T12:43:20;96865.22;;;16.16;34.58
35878;BME280;21982;49.804;24.072;2023-10-08T12:45:49;97186.84;;;19.15;33.77
35878;BME280;21982;49.804;24.072;2023-10-08T12:48:21;97185.44;;;19.85;33.07
35878;BME280;21982;49.804;24.072;2023-10-08T12:50:48;97141.44;;;19.91;32.79
35878;BME280;21982;49.804;24.072;2023-10-08T12:53:23;97151.50;;;20.00;32.32
35878;BME280;21982;49.804;24.072;2023-10-08T12:56:08;97060.00;;;19.63;32.25
35878;BME280;21982;49.804;24.072;2023-10-08T12:58:40;97187.56;;;20.80;31.92
35878;BME280;21982;49.804;24.072;2023-10-08T13:01:19;97203.69;;;21.07;31.36
35878;BME280;21982;49.804;24.072;2023-10-08T13:03:45;97165.69;;;21.03;31.12
35878;BME280;21982;49.804;24.072;2023-10-08T13:06:17;97191.81;;;21.03;30.24
35878;BME280;21982;49.804;24.072;2023-10-08T13:08:57;97211.53;;;20.82;30.82
35878;BME280;21982;49.804;24.072;2023-10-08T13:11:24;97009.59;;;19.75;30.63
35878;BME280;21982;49.804;24.072;2023-10-08T13:13:53;97197.50;;;21.06;30.13
35878;BME280;21982;49.804;24.072;2023-10-08T13:16:22;97100.38;;;20.22;29.72
35878;BME280;21982;49.804;24.072;2023-10-08T13:18:48;97104.25;;;20.04;29.79
35878;BME280;21982;49.804;24.072;2023-10-08T13:21:14;97144.81;;;20.30;29.92